sensor_id;sensor_type;location;lat;lon;timestamp;pressure;altitude;pressure_sealevel;temperature;humidity
40155;BME280;25875;48.202;16.334;2023-07-02T00:00:04;98243.91;;;20.17;49.41
40155;BME280;25875;48.202;16.334;2023-07-02T00:02:32;98237.00;;;20.14;49.82
40155;BME280;25875;48.202;16.334;2023-07-02T00:04:58;98237.53;;;20.10;49.60
40155;BME280;25875;48.202;16.334;2023-07-02T00:07:25;98239.38;;;20.09;49.65
40155;BME280;25875;48.202;16.334;2023-07-02T00:09:52;98235.16;;;20.15;49.52
40155;BME280;25875;48.202;16.334;2023-07-02T00:12:20;98066.97;;;19.16;49.45
40155;BME280;25875;48.202;16.334;2023-07-02T00:14:47;98235.47;;;20.20;49.56
40155;BME280;25875;48.202;16.334;2023-07-02T00:17:14;98212.34;;;20.03;49.75
40155;BME280;25875;48.202;16.334;2023-07-02T00:19:41;98240.03;;;20.11;49.78
40155;BME280;25875;48.202;16.334;2023-07-02T00:22:07;98239.00;;;20.21;49.56
40155;BME280;25875;48.202;16.334;2023-07-02T00:24:34;98235.47;;;20.20;49.25
40155;BME280;25875;48.202;16.334;2023-07-02T00:27:01;98234.16;;;20.16;49.75
40155;BME280;25875;48.202;16.334;2023-07-02T00:29:29;98236.84;;;20.16;49.71
40155;BME280;25875;48.202;16.334;2023-07-02T00:31:56;98240.19;;;20.18;49.63
40155;BME280;25875;48.202;16.334;2023-07-02T00:34:23;98239.00;;;20.21;49.52
40155;BME280;25875;48.202;16.334;2023-07-02T00:36:50;98237.69;;;20.25;49.56
40155;BME280;25875;48.202;16.334;2023-07-02T00:39:17;98246.78;;;20.24;49.35
40155;BME280;25875;48.202;16.334;2023-07-02T00:41:44;98240.03;;;20.19;49.64
40155;BME280;25875;48.202;16.334;2023-07-02T00:44:11;97910.19;;;18.21;49.33
40155;BME280;25875;48.202;16.334;2023-07-02T00:46:40;98239.38;;;20.26;49.52
40155;BME280;25875;48.202;16.334;2023-07-02T00:49:08;98231.28;;;20.26;49.43
40155;BME280;25875;48.202;16.334;2023-07-02T00:51:36;98239.84;;;20.21;49.51
40155;BME280;25875;48.202;16.334;2023-07-02T00:54:03;98237.19;;;20.13;49.85
40155;BME280;25875;48.202;16.334;2023-07-02T00:56:29;98244.59;;;20.11;49.59
40155;BME280;25875;48.202;16.334;2023-07-02T00:58:56;98240.53;;;20.15;49.43
40155;BME280;25875;48.202;16.334;2023-07-02T01:01:25;98198.59;;;19.90;49.70
40155;BME280;25875;48.202;16.334;2023-07-02T01:03:56;98236.66;;;20.17;49.47
40155;BME280;25875;48.202;16.334;2023-07-02T01:06:25;98232.66;;;20.05;49.80
40155;BME280;25875;48.202;16.334;2023-07-02T01:08:54;98240.38;;;20.08;49.94
40155;BME280;25875;48.202;16.334;2023-07-02T01:11:25;98239.38;;;20.09;49.86
40155;BME280;25875;48.202;16.334;2023-07-02T01:13:54;98240.22;;;20.10;49.77
40155;BME280;25875;48.202;16.334;2023-07-02T01:16:22;98238.38;;;20.10;49.72
40155;BME280;25875;48.202;16.334;2023-07-02T01:18:49;98243.75;;;20.10;49.64
40155;BME280;25875;48.202;16.334;2023-07-02T01:21:21;98250.31;;;20.08;49.83
40155;BME280;25875;48.202;16.334;2023-07-02T01:23:50;98245.09;;;20.06;49.91
40155;BME280;25875;48.202;16.334;2023-07-02T01:26:16;98243.75;;;20.02;49.90
40155;BME280;25875;48.202;16.334;2023-07-02T01:28:43;98096.00;;;19.21;49.92
40155;BME280;25875;48.202;16.334;2023-07-02T01:31:10;98236.03;;;20.07;49.67
40155;BME280;25875;48.202;16.334;2023-07-02T01:33:37;98239.06;;;20.04;49.69
40155;BME280;25875;48.202;16.334;2023-07-02T01:36:05;98237.38;;;19.95;50.20
40155;BME280;25875;48.202;16.334;2023-07-02T01:38:33;98040.66;;;18.71;49.73
40155;BME280;25875;48.202;16.334;2023-07-02T01:41:00;97877.31;;;17.62;50.17
40155;BME280;25875;48.202;16.334;2023-07-02T01:43:27;98217.72;;;19.78;49.93
40155;BME280;25875;48.202;16.334;2023-07-02T01:45:54;98232.19;;;19.94;50.07
40155;BME280;25875;48.202;16.334;2023-07-02T01:48:21;98235.91;;;19.84;50.24
40155;BME280;25875;48.202;16.334;2023-07-02T01:50:48;98230.19;;;19.88;50.23
40155;BME280;25875;48.202;16.334;2023-07-02T01:53:14;98235.03;;;19.76;50.46
40155;BME280;25875;48.202;16.334;2023-07-02T01:55:42;98236.72;;;19.77;50.50
40155;BME280;25875;48.202;16.334;2023-07-02T01:58:09;98235.06;;;19.84;50.14
40155;BME280;25875;48.202;16.334;2023-07-02T02:00:36;98234.69;;;19.79;50.25
40155;BME280;25875;48.202;16.334;2023-07-02T02:03:04;98236.22;;;19.81;50.63
40155;BME280;25875;48.202;16.334;2023-07-02T02:05:30;98241.09;;;19.78;50.36
40155;BME280;25875;48.202;16.334;2023-07-02T02:07:57;98245.44;;;19.79;50.69
40155;BME280;25875;48.202;16.334;2023-07-02T02:10:24;98238.56;;;19.76;50.36
40155;BME280;25875;48.202;16.334;2023-07-02T02:12:52;98231.00;;;19.64;51.03
40155;BME280;25875;48.202;16.334;2023-07-02T02:15:19;98242.94;;;19.69;50.71
40155;BME280;25875;48.202;16.334;2023-07-02T02:17:46;98249.66;;;19.73;50.74
40155;BME280;25875;48.202;16.334;2023-07-02T02:20:12;98245.28;;;19.64;51.12
40155;BME280;25875;48.202;16.334;2023-07-02T02:22:39;98248.31;;;19.69;50.92
40155;BME280;25875;48.202;16.334;2023-07-02T02:25:07;98248.81;;;19.65;50.91
40155;BME280;25875;48.202;16.334;2023-07-02T02:27:33;98240.94;;;19.55;51.40
40155;BME280;25875;48.202;16.334;2023-07-02T02:30:02;98254.88;;;19.59;51.28
40155;BME280;25875;48.202;16.334;2023-07-02T02:32:28;98257.38;;;19.60;51.39
40155;BME280;25875;48.202;16.334;2023-07-02T02:34:55;98253.84;;;19.51;51.54
40155;BME280;25875;48.202;16.334;2023-07-02T02:37:22;98248.66;;;19.50;51.81
40155;BME280;25875;48.202;16.334;2023-07-02T02:39:49;98253.00;;;19.43;51.52
40155;BME280;25875;48.202;16.334;2023-07-02T02:42:15;98213.00;;;19.15;51.63
40155;BME280;25875;48.202;16.334;2023-07-02T02:44:42;98251.00;;;19.45;51.65
40155;BME280;25875;48.202;16.334;2023-07-02T02:47:10;98250.31;;;19.43;51.84
40155;BME280;25875;48.202;16.334;2023-07-02T02:49:37;98253.19;;;19.41;51.85
40155;BME280;25875;48.202;16.334;2023-07-02T02:52:05;98246.97;;;19.41;52.17
40155;BME280;25875;48.202;16.334;2023-07-02T02:54:32;98255.88;;;19.41;51.79
40155;BME280;25875;48.202;16.334;2023-07-02T02:56:58;98255.66;;;19.35;52.41
40155;BME280;25875;48.202;16.334;2023-07-02T02:59:25;98252.63;;;19.30;52.30
40155;BME280;25875;48.202;16.334;2023-07-02T03:01:52;98251.78;;;19.29;52.29
40155;BME280;25875;48.202;16.334;2023-07-02T03:04:20;98262.88;;;19.34;52.69
40155;BME280;25875;48.202;16.334;2023-07-02T03:06:49;98256.50;;;19.35;52.66
40155;BME280;25875;48.202;16.334;2023-07-02T03:09:15;98259.69;;;19.31;52.65
40155;BME280;25875;48.202;16.334;2023-07-02T03:11:43;98260.03;;;19.36;52.25
40155;BME280;25875;48.202;16.334;2023-07-02T03:14:10;98261.41;;;19.40;52.61
40155;BME280;25875;48.202;16.334;2023-07-02T03:16:37;98255.34;;;19.38;52.51
40155;BME280;25875;48.202;16.334;2023-07-02T03:19:03;98263.56;;;19.28;52.60
40155;BME280;25875;48.202;16.334;2023-07-02T03:21:31;98257.00;;;19.31;52.68
40155;BME280;25875;48.202;16.334;2023-07-02T03:23:58;98261.34;;;19.23;53.24
40155;BME280;25875;48.202;16.334;2023-07-02T03:26:25;98276.97;;;19.20;53.11
40155;BME280;25875;48.202;16.334;2023-07-02T03:28:52;98267.56;;;19.24;53.06
40155;BME280;25875;48.202;16.334;2023-07-02T03:31:18;98275.97;;;19.29;53.12
40155;BME280;25875;48.202;16.334;2023-07-02T03:33:45;98281.69;;;19.26;53.51
40155;BME280;25875;48.202;16.334;2023-07-02T03:36:12;98276.63;;;19.23;53.37
40155;BME280;25875;48.202;16.334;2023-07-02T03:38:40;98277.16;;;19.27;53.66
40155;BME280;25875;48.202;16.334;2023-07-02T03:41:06;98278.81;;;19.28;53.73
40155;BME280;25875;48.202;16.334;2023-07-02T03:43:33;98284.69;;;19.23;53.78
40155;BME280;25875;48.202;16.334;2023-07-02T03:46:00;98288.75;;;19.35;53.48
40155;BME280;25875;48.202;16.334;2023-07-02T03:48:27;98288.06;;;19.33;53.89
40155;BME280;25875;48.202;16.334;2023-07-02T03:50:54;98284.03;;;19.37;53.75
40155;BME280;25875;48.202;16.334;2023-07-02T03:53:20;98286.59;;;19.39;54.00
40155;BME280;25875;48.202;16.334;2023-07-02T03:55:48;98278.66;;;19.37;53.90
40155;BME280;25875;48.202;16.334;2023-07-02T03:58:15;98287.78;;;19.44;54.10
40155;BME280;25875;48.202;16.334;2023-07-02T04:00:42;98292.47;;;19.42;53.79
40155;BME280;25875;48.202;16.334;2023-07-02T04:03:09;98296.69;;;19.45;53.77
40155;BME280;25875;48.202;16.334;2023-07-02T04:05:36;98300.22;;;19.45;54.06
40155;BME280;25875;48.202;16.334;2023-07-02T04:08:03;98287.94;;;19.43;54.12
40155;BME280;25875;48.202;16.334;2023-07-02T04:10:29;98251.44;;;19.16;54.27
40155;BME280;25875;48.202;16.334;2023-07-02T04:12:57;98296.19;;;19.49;54.13
40155;BME280;25875;48.202;16.334;2023-07-02T04:15:24;98304.25;;;19.49;54.40
40155;BME280;25875;48.202;16.334;2023-07-02T04:17:52;98286.09;;;19.51;54.38
40155;BME280;25875;48.202;16.334;2023-07-02T04:20:19;98281.53;;;19.36;54.61
40155;BME280;25875;48.202;16.334;2023-07-02T04:22:46;98282.56;;;19.43;54.48
40155;BME280;25875;48.202;16.334;2023-07-02T04:25:14;98314.31;;;19.55;55.04
40155;BME280;25875;48.202;16.334;2023-07-02T04:27:41;98304.75;;;19.53;54.91
40155;BME280;25875;48.202;16.334;2023-07-02T04:30:11;98314.66;;;19.44;55.74
40155;BME280;25875;48.202;16.334;2023-07-02T04:32:39;98286.25;;;19.42;55.61
40155;BME280;25875;48.202;16.334;2023-07-02T04:35:07;98328.75;;;19.46;56.06
40155;BME280;25875;48.202;16.334;2023-07-02T04:37:34;98330.94;;;19.43;56.47
40155;BME280;25875;48.202;16.334;2023-07-02T04:40:01;98349.91;;;19.41;56.95
40155;BME280;25875;48.202;16.334;2023-07-02T04:42:29;98346.72;;;19.46;56.80
40155;BME280;25875;48.202;16.334;2023-07-02T04:45:00;98344.53;;;19.49;56.74
40155;BME280;25875;48.202;16.334;2023-07-02T04:47:30;98345.38;;;19.50;57.20
40155;BME280;25875;48.202;16.334;2023-07-02T04:49:57;98341.88;;;19.58;57.30
40155;BME280;25875;48.202;16.334;2023-07-02T04:52:24;98357.81;;;19.51;57.48
40155;BME280;25875;48.202;16.334;2023-07-02T04:54:51;98352.09;;;19.46;58.14
40155;BME280;25875;48.202;16.334;2023-07-02T04:57:17;98349.75;;;19.51;57.97
40155;BME280;25875;48.202;16.334;2023-07-02T04:59:44;98352.78;;;19.48;58.66
40155;BME280;25875;48.202;16.334;2023-07-02T05:02:11;98357.97;;;19.41;58.95
40155;BME280;25875;48.202;16.334;2023-07-02T05:04:39;98360.31;;;19.44;59.21
40155;BME280;25875;48.202;16.334;2023-07-02T05:07:06;98344.03;;;19.46;59.21
40155;BME280;25875;48.202;16.334;2023-07-02T05:09:32;98357.81;;;19.43;59.71
40155;BME280;25875;48.202;16.334;2023-07-02T05:11:59;98357.16;;;19.49;59.65
40155;BME280;25875;48.202;16.334;2023-07-02T05:14:26;98367.72;;;19.42;60.09
40155;BME280;25875;48.202;16.334;2023-07-02T05:16:53;98337.75;;;19.21;60.35
40155;BME280;25875;48.202;16.334;2023-07-02T05:19:19;98353.06;;;19.37;60.46
40155;BME280;25875;48.202;16.334;2023-07-02T05:21:48;98366.03;;;19.49;60.34
40155;BME280;25875;48.202;16.334;2023-07-02T05:24:14;98384.84;;;19.49;60.29
40155;BME280;25875;48.202;16.334;2023-07-02T05:26:41;98391.16;;;19.32;61.19
40155;BME280;25875;48.202;16.334;2023-07-02T05:29:08;98391.47;;;19.21;61.82
40155;BME280;25875;48.202;16.334;2023-07-02T05:31:34;98382.78;;;19.35;61.44
40155;BME280;25875;48.202;16.334;2023-07-02T05:34:01;98393.84;;;19.32;61.93
40155;BME280;25875;48.202;16.334;2023-07-02T05:36:28;98385.00;;;19.40;61.85
40155;BME280;25875;48.202;16.334;2023-07-02T05:38:56;98403.06;;;19.30;62.27
40155;BME280;25875;48.202;16.334;2023-07-02T05:41:23;98400.28;;;19.39;62.15
40155;BME280;25875;48.202;16.334;2023-07-02T05:43:50;98403.47;;;19.43;62.39
40155;BME280;25875;48.202;16.334;2023-07-02T05:46:17;98405.00;;;19.45;62.84
40155;BME280;25875;48.202;16.334;2023-07-02T05:48:44;98407.50;;;19.39;63.29
40155;BME280;25875;48.202;16.334;2023-07-02T05:51:11;98407.72;;;19.53;62.70
40155;BME280;25875;48.202;16.334;2023-07-02T05:53:38;98384.84;;;19.49;61.86
40155;BME280;25875;48.202;16.334;2023-07-02T05:56:06;98419.94;;;19.48;63.31
40155;BME280;25875;48.202;16.334;2023-07-02T05:58:33;98412.88;;;19.39;64.15
40155;BME280;25875;48.202;16.334;2023-07-02T06:01:00;98424.66;;;19.46;63.73
40155;BME280;25875;48.202;16.334;2023-07-02T06:03:26;98424.81;;;19.44;64.16
40155;BME280;25875;48.202;16.334;2023-07-02T06:05:53;98092.66;;;17.44;64.26
40155;BME280;25875;48.202;16.334;2023-07-02T06:08:20;98430.22;;;19.52;63.86
40155;BME280;25875;48.202;16.334;2023-07-02T06:10:47;98440.97;;;19.52;64.60
40155;BME280;25875;48.202;16.334;2023-07-02T06:13:15;98394.94;;;19.13;65.08
40155;BME280;25875;48.202;16.334;2023-07-02T06:15:43;98441.09;;;19.43;64.86
40155;BME280;25875;48.202;16.334;2023-07-02T06:18:10;98436.75;;;19.50;64.73
40155;BME280;25875;48.202;16.334;2023-07-02T06:20:37;98449.84;;;19.45;65.03
40155;BME280;25875;48.202;16.334;2023-07-02T06:23:03;98456.44;;;19.59;64.17
40155;BME280;25875;48.202;16.334;2023-07-02T06:25:30;98476.41;;;19.56;64.53
40155;BME280;25875;48.202;16.334;2023-07-02T06:27:57;98465.50;;;19.58;64.07
40155;BME280;25875;48.202;16.334;2023-07-02T06:30:25;98455.09;;;19.63;64.03
40155;BME280;25875;48.202;16.334;2023-07-02T06:32:53;98461.34;;;19.71;63.69
40155;BME280;25875;48.202;16.334;2023-07-02T06:35:21;98458.13;;;19.68;63.69
40155;BME280;25875;48.202;16.334;2023-07-02T06:37:47;98460.16;;;19.74;63.68
40155;BME280;25875;48.202;16.334;2023-07-02T06:40:14;98464.38;;;19.76;64.16
40155;BME280;25875;48.202;16.334;2023-07-02T06:42:41;98461.84;;;19.67;64.09
40155;BME280;25875;48.202;16.334;2023-07-02T06:45:08;98456.53;;;19.83;63.70
40155;BME280;25875;48.202;16.334;2023-07-02T06:47:36;98447.13;;;19.87;63.38
40155;BME280;25875;48.202;16.334;2023-07-02T06:50:03;98448.25;;;19.76;63.54
40155;BME280;25875;48.202;16.334;2023-07-02T06:52:30;98453.44;;;19.70;63.92
40155;BME280;25875;48.202;16.334;2023-07-02T06:54:57;98361.09;;;19.29;63.72
40155;BME280;25875;48.202;16.334;2023-07-02T06:57:24;98457.56;;;19.90;63.38
40155;BME280;25875;48.202;16.334;2023-07-02T06:59:51;98459.75;;;19.95;63.27
40155;BME280;25875;48.202;16.334;2023-07-02T07:02:17;98456.38;;;19.93;63.26
40155;BME280;25875;48.202;16.334;2023-07-02T07:04:45;98459.25;;;19.99;62.98
40155;BME280;25875;48.202;16.334;2023-07-02T07:07:12;98461.44;;;20.04;62.71
40155;BME280;25875;48.202;16.334;2023-07-02T07:09:39;98463.28;;;20.03;63.22
40155;BME280;25875;48.202;16.334;2023-07-02T07:12:07;98458.09;;;20.18;62.34
40155;BME280;25875;48.202;16.334;2023-07-02T07:14:33;98458.13;;;20.26;62.43
40155;BME280;25875;48.202;16.334;2023-07-02T07:17:00;98450.91;;;20.35;61.79
40155;BME280;25875;48.202;16.334;2023-07-02T07:19:28;98453.59;;;20.43;61.55
40155;BME280;25875;48.202;16.334;2023-07-02T07:21:56;98447.69;;;20.47;61.21
40155;BME280;25875;48.202;16.334;2023-07-02T07:24:23;98443.47;;;20.61;61.28
40155;BME280;25875;48.202;16.334;2023-07-02T07:26:50;98452.19;;;20.79;61.00
40155;BME280;25875;48.202;16.334;2023-07-02T07:29:16;98440.06;;;20.92;59.91
40155;BME280;25875;48.202;16.334;2023-07-02T07:31:43;98452.53;;;20.85;59.21
40155;BME280;25875;48.202;16.334;2023-07-02T07:34:11;98456.22;;;20.92;59.28
40155;BME280;25875;48.202;16.334;2023-07-02T07:36:38;98448.47;;;20.89;58.94
40155;BME280;25875;48.202;16.334;2023-07-02T07:39:06;98459.41;;;20.95;59.42
40155;BME280;25875;48.202;16.334;2023-07-02T07:41:32;98456.34;;;21.14;58.21
40155;BME280;25875;48.202;16.334;2023-07-02T07:43:59;98430.16;;;20.84;58.02
40155;BME280;25875;48.202;16.334;2023-07-02T07:46:26;98456.47;;;21.29;58.50
40155;BME280;25875;48.202;16.334;2023-07-02T07:48:53;98459.00;;;21.31;57.90
40155;BME280;25875;48.202;16.334;2023-07-02T07:51:20;98438.75;;;21.35;57.31
40155;BME280;25875;48.202;16.334;2023-07-02T07:53:47;98461.22;;;21.58;57.00
40155;BME280;25875;48.202;16.334;2023-07-02T07:58:41;98445.00;;;21.35;56.92
40155;BME280;25875;48.202;16.334;2023-07-02T08:01:08;98455.41;;;21.38;57.27
40155;BME280;25875;48.202;16.334;2023-07-02T08:03:37;98449.88;;;21.71;56.61
40155;BME280;25875;48.202;16.334;2023-07-02T08:06:04;98449.25;;;21.61;56.54
40155;BME280;25875;48.202;16.334;2023-07-02T08:08:31;98445.91;;;21.90;56.01
40155;BME280;25875;48.202;16.334;2023-07-02T08:10:57;98439.63;;;21.97;55.45
40155;BME280;25875;48.202;16.334;2023-07-02T08:13:25;98431.09;;;22.08;55.66
40155;BME280;25875;48.202;16.334;2023-07-02T08:15:52;98424.97;;;22.37;54.50
40155;BME280;25875;48.202;16.334;2023-07-02T08:18:19;98420.94;;;22.79;53.84
40155;BME280;25875;48.202;16.334;2023-07-02T08:20:46;98418.97;;;22.73;53.50
40155;BME280;25875;48.202;16.334;2023-07-02T08:23:13;98416.81;;;22.68;52.87
40155;BME280;25875;48.202;16.334;2023-07-02T08:25:39;98428.09;;;22.72;51.97
40155;BME280;25875;48.202;16.334;2023-07-02T08:28:06;98430.13;;;22.70;52.38
40155;BME280;25875;48.202;16.334;2023-07-02T08:30:34;98424.38;;;22.73;51.86
40155;BME280;25875;48.202;16.334;2023-07-02T08:33:01;98434.72;;;22.99;51.62
40155;BME280;25875;48.202;16.334;2023-07-02T08:35:28;98433.59;;;23.08;51.18
40155;BME280;25875;48.202;16.334;2023-07-02T08:37:55;98431.28;;;23.20;51.37
40155;BME280;25875;48.202;16.334;2023-07-02T08:40:22;98429.84;;;23.68;49.61
40155;BME280;25875;48.202;16.334;2023-07-02T08:42:49;98400.34;;;23.37;49.35
40155;BME280;25875;48.202;16.334;2023-07-02T08:45:16;98448.16;;;23.36;50.18
40155;BME280;25875;48.202;16.334;2023-07-02T08:47:44;98447.00;;;22.87;50.97
40155;BME280;25875;48.202;16.334;2023-07-02T08:50:12;98441.13;;;22.68;51.44
40155;BME280;25875;48.202;16.334;2023-07-02T08:52:39;98424.31;;;22.35;51.73
40155;BME280;25875;48.202;16.334;2023-07-02T08:55:08;98380.75;;;22.38;51.64
40155;BME280;25875;48.202;16.334;2023-07-02T08:57:35;98424.25;;;22.66;51.86
40155;BME280;25875;48.202;16.334;2023-07-02T09:00:06;98429.41;;;22.76;51.66
40155;BME280;25875;48.202;16.334;2023-07-02T09:02:35;98433.31;;;22.73;51.53
40155;BME280;25875;48.202;16.334;2023-07-02T09:05:04;98438.53;;;22.75;51.33
40155;BME280;25875;48.202;16.334;2023-07-02T09:07:31;98428.84;;;22.81;51.20
40155;BME280;25875;48.202;16.334;2023-07-02T09:09:58;98432.66;;;22.86;51.20
40155;BME280;25875;48.202;16.334;2023-07-02T09:12:25;98431.66;;;23.02;50.92
40155;BME280;25875;48.202;16.334;2023-07-02T09:14:57;98428.59;;;23.34;50.41
40155;BME280;25875;48.202;16.334;2023-07-02T09:17:27;98427.34;;;23.52;50.03
40155;BME280;25875;48.202;16.334;2023-07-02T09:19:56;98390.09;;;23.18;49.61
40155;BME280;25875;48.202;16.334;2023-07-02T09:22:25;98417.97;;;23.33;49.15
40155;BME280;25875;48.202;16.334;2023-07-02T09:24:52;98424.88;;;23.35;49.61
40155;BME280;25875;48.202;16.334;2023-07-02T09:27:20;98399.13;;;23.25;49.12
40155;BME280;25875;48.202;16.334;2023-07-02T09:29:50;98389.25;;;23.17;48.67
40155;BME280;25875;48.202;16.334;2023-07-02T09:32:24;98427.66;;;23.27;49.27
40155;BME280;25875;48.202;16.334;2023-07-02T09:34:53;98398.84;;;23.05;48.98
40155;BME280;25875;48.202;16.334;2023-07-02T09:37:21;98380.88;;;22.97;49.18
40155;BME280;25875;48.202;16.334;2023-07-02T09:39:50;98429.69;;;23.25;49.53
40155;BME280;25875;48.202;16.334;2023-07-02T09:42:18;98429.97;;;23.16;49.72
40155;BME280;25875;48.202;16.334;2023-07-02T09:44:46;98435.84;;;23.19;49.50
40155;BME280;25875;48.202;16.334;2023-07-02T09:47:14;98430.72;;;23.24;49.54
40155;BME280;25875;48.202;16.334;2023-07-02T09:49:49;98434.63;;;23.22;49.19
40155;BME280;25875;48.202;16.334;2023-07-02T09:52:17;98435.28;;;23.09;49.21
40155;BME280;25875;48.202;16.334;2023-07-02T09:54:44;98441.63;;;23.01;49.39
40155;BME280;25875;48.202;16.334;2023-07-02T09:57:13;98445.72;;;22.97;49.43
40155;BME280;25875;48.202;16.334;2023-07-02T09:59:40;98477.03;;;22.92;49.62
40155;BME280;25875;48.202;16.334;2023-07-02T10:02:08;98477.00;;;22.77;49.64
40155;BME280;25875;48.202;16.334;2023-07-02T10:04:42;98470.31;;;22.88;49.54
40155;BME280;25875;48.202;16.334;2023-07-02T10:07:09;98470.50;;;22.86;49.75
40155;BME280;25875;48.202;16.334;2023-07-02T10:09:37;98475.72;;;22.88;49.58
40155;BME280;25875;48.202;16.334;2023-07-02T10:12:30;98473.03;;;23.02;49.32
40155;BME280;25875;48.202;16.334;2023-07-02T10:14:58;98476.47;;;23.11;49.31
40155;BME280;25875;48.202;16.334;2023-07-02T10:17:26;98477.41;;;23.03;49.36
40155;BME280;25875;48.202;16.334;2023-07-02T10:19:57;98473.75;;;22.96;49.57
40155;BME280;25875;48.202;16.334;2023-07-02T10:22:24;98480.94;;;23.04;49.66
40155;BME280;25875;48.202;16.334;2023-07-02T10:24:53;98472.38;;;23.15;49.39
40155;BME280;25875;48.202;16.334;2023-07-02T10:27:32;98470.63;;;23.37;49.14
40155;BME280;25875;48.202;16.334;2023-07-02T10:29:59;98455.06;;;23.54;48.73
40155;BME280;25875;48.202;16.334;2023-07-02T10:32:28;98458.56;;;23.69;48.68
40155;BME280;25875;48.202;16.334;2023-07-02T10:34:55;98463.06;;;23.62;48.03
40155;BME280;25875;48.202;16.334;2023-07-02T10:37:24;98417.69;;;23.43;47.71
40155;BME280;25875;48.202;16.334;2023-07-02T10:39:50;98445.72;;;23.56;48.22
40155;BME280;25875;48.202;16.334;2023-07-02T10:42:18;98427.09;;;23.47;48.43
40155;BME280;25875;48.202;16.334;2023-07-02T10:44:50;98432.31;;;23.33;48.18
40155;BME280;25875;48.202;16.334;2023-07-02T10:47:18;98417.25;;;23.60;47.80
40155;BME280;25875;48.202;16.334;2023-07-02T10:49:45;98471.41;;;23.82;47.69
40155;BME280;25875;48.202;16.334;2023-07-02T10:52:12;98383.75;;;23.11;48.09
40155;BME280;25875;48.202;16.334;2023-07-02T10:54:42;98451.84;;;23.65;47.93
40155;BME280;25875;48.202;16.334;2023-07-02T10:57:10;98429.41;;;23.50;48.01
40155;BME280;25875;48.202;16.334;2023-07-02T10:59:39;98455.88;;;23.54;48.04
40155;BME280;25875;48.202;16.334;2023-07-02T11:02:08;98460.91;;;23.57;48.14
40155;BME280;25875;48.202;16.334;2023-07-02T11:04:35;98471.56;;;23.44;47.94
40155;BME280;25875;48.202;16.334;2023-07-02T11:07:03;98468.88;;;23.29;47.57
40155;BME280;25875;48.202;16.334;2023-07-02T11:09:30;98326.28;;;22.58;47.78
40155;BME280;25875;48.202;16.334;2023-07-02T11:11:59;98470.16;;;23.33;47.75
40155;BME280;25875;48.202;16.334;2023-07-02T11:14:27;98465.22;;;23.37;47.79
40155;BME280;25875;48.202;16.334;2023-07-02T11:16:54;98278.91;;;22.18;47.47
40155;BME280;25875;48.202;16.334;2023-07-02T11:19:23;98395.41;;;23.11;47.19
40155;BME280;25875;48.202;16.334;2023-07-02T11:21:51;98450.31;;;23.41;47.51
40155;BME280;25875;48.202;16.334;2023-07-02T11:24:27;98469.75;;;23.66;47.51
40155;BME280;25875;48.202;16.334;2023-07-02T11:26:54;98349.47;;;22.96;47.12
40155;BME280;25875;48.202;16.334;2023-07-02T11:29:21;98472.53;;;23.87;46.95
40155;BME280;25875;48.202;16.334;2023-07-02T11:31:48;98468.75;;;23.67;46.90
40155;BME280;25875;48.202;16.334;2023-07-02T11:34:15;98437.56;;;23.71;47.45
40155;BME280;25875;48.202;16.334;2023-07-02T11:36:44;98484.38;;;23.86;47.49
40155;BME280;25875;48.202;16.334;2023-07-02T11:39:11;98486.63;;;23.83;47.15
40155;BME280;25875;48.202;16.334;2023-07-02T11:41:40;98478.81;;;23.73;46.94
40155;BME280;25875;48.202;16.334;2023-07-02T11:44:07;98470.22;;;23.69;47.02
40155;BME280;25875;48.202;16.334;2023-07-02T11:46:34;98471.53;;;23.74;47.23
40155;BME280;25875;48.202;16.334;2023-07-02T11:49:01;98450.03;;;23.51;46.74
40155;BME280;25875;48.202;16.334;2023-07-02T11:51:30;98371.94;;;22.82;46.77
40155;BME280;25875;48.202;16.334;2023-07-02T11:53:58;98488.44;;;23.46;46.85
40155;BME280;25875;48.202;16.334;2023-07-02T11:56:25;98486.56;;;23.61;47.01
40155;BME280;25875;48.202;16.334;2023-07-02T11:58:51;98501.91;;;23.90;46.62
40155;BME280;25875;48.202;16.334;2023-07-02T12:01:18;98500.25;;;23.75;46.54
40155;BME280;25875;48.202;16.334;2023-07-02T12:03:45;98470.91;;;23.57;46.55
40155;BME280;25875;48.202;16.334;2023-07-02T12:06:12;98503.44;;;23.63;46.37
40155;BME280;25875;48.202;16.334;2023-07-02T12:08:39;98485.06;;;23.59;46.42
40155;BME280;25875;48.202;16.334;2023-07-02T12:11:07;98491.03;;;23.69;46.30
40155;BME280;25875;48.202;16.334;2023-07-02T12:13:34;98461.69;;;23.36;46.82
40155;BME280;25875;48.202;16.334;2023-07-02T12:16:01;98503.03;;;23.81;46.43
40155;BME280;25875;48.202;16.334;2023-07-02T12:18:28;98498.94;;;23.85;46.26
40155;BME280;25875;48.202;16.334;2023-07-02T12:20:54;98485.66;;;23.90;46.01
40155;BME280;25875;48.202;16.334;2023-07-02T12:23:21;98502.28;;;24.02;45.82
40155;BME280;25875;48.202;16.334;2023-07-02T12:25:48;98515.53;;;23.82;45.78
40155;BME280;25875;48.202;16.334;2023-07-02T12:28:16;98504.81;;;23.74;45.99
40155;BME280;25875;48.202;16.334;2023-07-02T12:30:43;98509.59;;;23.72;46.09
40155;BME280;25875;48.202;16.334;2023-07-02T12:33:10;98493.91;;;23.67;46.01
40155;BME280;25875;48.202;16.334;2023-07-02T12:35:36;98495.94;;;23.80;45.81
40155;BME280;25875;48.202;16.334;2023-07-02T12:38:03;98508.09;;;23.69;45.82
40155;BME280;25875;48.202;16.334;2023-07-02T12:40:32;98496.44;;;23.69;45.50
40155;BME280;25875;48.202;16.334;2023-07-02T12:42:59;98499.44;;;23.59;46.09
40155;BME280;25875;48.202;16.334;2023-07-02T12:45:27;98491.16;;;23.46;46.14
40155;BME280;25875;48.202;16.334;2023-07-02T12:47:54;98501.41;;;23.51;45.94
40155;BME280;25875;48.202;16.334;2023-07-02T12:50:21;98486.03;;;23.36;45.98
40155;BME280;25875;48.202;16.334;2023-07-02T12:52:48;98492.53;;;23.57;45.81